Flight Track Log - Related Links

Times and Time Zones

All times are in EDT time to prevent confusion due to time zone crossing. See the FLG3735 flight status page for this flight to view local times or setup timezone preferences in your user account.

Time Position Orientation Groundspeed Altitude Reporting Facility
EDT Latitude Longitude Course Direction KTS MPH feet Rate Location/Type
Tue 10:12:25 PM 42.1994 -83.3608 71° East 160 184 1,300  Level Cleveland Center
Tue 10:13:20 PM 42.1556 -83.3617 181° South 210 242 2,600 1,691 Climbing Cleveland Center
Tue 10:14:15 PM 42.1017 -83.3567 176° South 243 280 4,400 2,380 Climbing Cleveland Center
Tue 10:15:00 PM 42.3046 -82.8102 75° East  Level FlightAware Approximate
Tue 10:15:21 PM 42.1142 -83.2592 80° East 255 293 7,400  Level Cleveland Center
Tue 10:16:00 PM 42.3244 -82.6734 82° East  Level FlightAware Approximate
Tue 10:16:21 PM 42.1433 -83.1792 64° Northeast 249 287 9,800  Level Cleveland Center
Tue 10:17:00 PM 42.3449 -82.5371 71° East  Level FlightAware Approximate
Tue 10:17:21 PM 42.1767 -83.0769 66° East 274 315 11,400  Level Cleveland Center
Tue 10:18:21 PM 42.2125 -82.9578 68° East 306 352 13,300 2,000 Climbing Cleveland Center
Tue 10:19:21 PM 42.2550 -82.8219 67° East 340 391 15,400 1,934 Climbing Cleveland Center
Tue 10:20:22 PM 42.2928 -82.6997 67° East 353 406 17,200 1,550 Climbing Cleveland Center
Tue 10:21:21 PM 42.3325 -82.5689 68° East 353 406 18,500 1,361 Climbing Cleveland Center
Tue 10:22:21 PM 42.3639 -82.4350 72° East 364 419 19,900 1,300 Climbing Cleveland Center
Tue 10:23:21 PM 42.3600 -82.2917 92° East 364 419 21,100 1,200 Climbing Cleveland Center
Tue 10:24:21 PM 42.3536 -82.1481 93° East 369 425 22,300 1,100 Climbing Cleveland Center
Tue 10:25:21 PM 42.3556 -82.0019 89° East 386 444 23,300 950 Climbing Cleveland Center
Tue 10:26:21 PM 42.3678 -81.8506 84° East 391 450 24,200 800 Climbing Cleveland Center
Tue 10:27:21 PM 42.3817 -81.7019 83° East 391 450 24,900 700 Climbing Cleveland Center
Tue 10:28:21 PM 42.3936 -81.5503 84° East 399 459 25,600 700 Climbing Cleveland Center
Tue 10:29:21 PM 42.4053 -81.3986 84° East 405 466 26,300 700 Climbing Cleveland Center
Tue 10:30:21 PM 42.4186 -81.2442 83° East 410 472 27,000 650 Climbing Cleveland Center
Tue 10:31:21 PM 42.4278 -81.1064 85° East 410 472 27,600 600 Climbing Cleveland Center
Tue 10:32:21 PM 42.4389 -80.9517 84° East 405 466 28,200 550 Climbing Cleveland Center
Tue 10:33:21 PM 42.4517 -80.7997 83° East 410 472 28,700 400 Climbing Cleveland Center
Tue 10:34:21 PM 42.4622 -80.6394 85° East 413 475 29,000 150 Climbing Cleveland Center
Tue 10:35:21 PM 42.4747 -80.4847 84° East 418 481 29,000  Level Cleveland Center
Tue 10:36:21 PM 42.4869 -80.3131 84° East 425 489 29,000  Level Cleveland Center
Tue 10:37:21 PM 42.4969 -80.1522 85° East 425 489 29,000  Level Cleveland Center
Tue 10:38:21 PM 42.5067 -79.9889 85° East 425 489 29,000  Level Cleveland Center
Tue 10:39:21 PM 42.5203 -79.8422 83° East 425 489 29,000  Level Cleveland Center
Tue 10:40:21 PM 42.5317 -79.6817 84° East 425 489 29,000  Level Cleveland Center
Tue 10:41:21 PM 42.5408 -79.5208 86° East 425 489 29,000  Level Cleveland Center
Tue 10:42:21 PM 42.5497 -79.3572 86° East 425 489 29,000  Level Cleveland Center
Tue 10:43:21 PM 42.5603 -79.1936 85° East 425 489 29,000  Level Cleveland Center
Tue 10:44:22 PM 42.5686 -79.0297 86° East 425 489 29,000  Level Cleveland Center
Tue 10:45:21 PM 42.5789 -78.8661 85° East 425 489 29,000  Level Cleveland Center
Tue 10:46:21 PM 42.5867 -78.7022 86° East 425 489 29,000  Level Cleveland Center
Tue 10:47:21 PM 42.5964 -78.5383 85° East 430 495 29,000  Level Cleveland Center
Tue 10:48:21 PM 42.6039 -78.3744 86° East 430 495 29,000  Level Cleveland Center
Tue 10:49:21 PM 42.6131 -78.2106 86° East 430 495 29,000  Level Cleveland Center
Tue 10:50:21 PM 42.6200 -78.0494 87° East 430 495 29,000  Level Cleveland Center
Tue 10:52:27 PM 42.6389 -77.7081 86° East 422 486 29,000  Level Boston Center
Tue 10:53:27 PM 42.6450 -77.5306 87° East 427 491 29,000  Level Boston Center
Tue 10:54:27 PM 42.6500 -77.3642 88° East 427 491 29,000  Level Boston Center
Tue 10:55:27 PM 42.6572 -77.2008 87° East 427 491 29,000  Level Boston Center
Tue 10:56:27 PM 42.6639 -77.0375 87° East 427 491 29,000  Level Boston Center
Tue 10:57:27 PM 42.6703 -76.8742 87° East 427 491 29,000  Level Boston Center
Tue 10:58:27 PM 42.6767 -76.7108 87° East 432 497 29,000  Level Boston Center
Tue 10:59:27 PM 42.6828 -76.5444 87° East 432 497 29,000  Level Boston Center
Tue 11:00:27 PM 42.6906 -76.3811 86° East 432 497 29,000 -50 Level Boston Center
Tue 11:01:27 PM 42.6956 -76.2317 87° East 437 503 28,900 -400 Descending Boston Center
Tue 11:02:27 PM 42.7011 -76.0681 87° East 437 503 28,200 -1,100 Descending Boston Center
Tue 11:03:27 PM 42.7042 -75.8986 89° East 437 503 26,700 -1,500 Descending Boston Center
Tue 11:04:27 PM 42.7092 -75.7350 88° East 437 503 25,200 -1,500 Descending Boston Center
Tue 11:05:27 PM 42.7139 -75.5656 88° East 437 503 23,700 -1,550 Descending Boston Center
Tue 11:06:27 PM 42.7203 -75.4078 87° East 437 503 22,100 -1,800 Descending Boston Center
Tue 11:07:27 PM 42.7222 -75.2494 89° East 431 496 20,100 -2,000 Descending Boston Center
Tue 11:08:27 PM 42.7258 -75.0914 88° East 423 487 18,100 -1,950 Descending Boston Center
Tue 11:09:27 PM 42.7294 -74.9389 88° East 411 473 16,200 -2,017 Descending Boston Center
Tue 11:10:23 PM 42.7325 -74.7892 88° East 382 440 14,200 -2,080 Descending Boston Center
Tue 11:10:42 PM 42.7314 -74.7467 92° East 368 423 13,600 -2,156 Descending Boston Center
Tue 11:11:27 PM 42.7353 -74.6450 87° East 375 432 11,900 -2,100 Descending Boston Center
Tue 11:11:42 PM 42.7358 -74.6197 88° East 339 390 11,500 -1,000 Descending Boston Center
Tue 11:12:27 PM 42.7458 -74.5322 81° East 341 392 10,900 -590 Descending Boston Center
Tue 11:12:43 PM 42.7486 -74.4956 84° East 312 359 10,900 -1,100 Level Boston Center
Tue 11:13:27 PM 42.7606 -74.4169 78° East 296 341 9,800 -1,475 Descending Boston Center
Tue 11:13:44 PM 42.7631 -74.3914 82° East 266 306 9,400 -1,700 Descending Boston Center
Tue 11:14:27 PM 42.7706 -74.3181 82° East 269 310 8,100 -1,800 Descending Boston Center
Tue 11:14:44 PM 42.7750 -74.2928 77° East 257 296 7,600 -1,700 Descending Boston Center
Tue 11:15:27 PM 42.7803 -74.2250 84° East 255 293 6,400 -1,574 Descending Boston Center
Tue 11:15:45 PM 42.7847 -74.1997 77° East 247 284 6,000 -1,500 Descending Boston Center
Tue 11:16:27 PM 42.7922 -74.1319 81° East 250 288 4,900 -1,700 Descending Boston Center
Tue 11:16:45 PM 42.7947 -74.1039 83° East 247 284 4,300 -1,500 Descending Boston Center
Tue 11:17:27 PM 42.7994 -74.0503 83° East 250 288 3,400 -1,279 Descending Boston Center
Tue 11:17:46 PM 42.8064 -74.0050 78° East 259 298 3,000 -400 Descending Boston Center
Tue 11:18:27 PM 42.8111 -73.9600 82° East 250 288 3,000 -197 Level Boston Center
Tue 11:18:47 PM 42.8139 -73.9231 84° East 211 243 2,800 -500 Descending Boston Center
Tue 11:19:27 PM 42.8189 -73.8611 84° East 245 282 2,500 -787 Descending Boston Center
Tue 11:19:48 PM 42.8231 -73.8528 56° Northeast 172 198 2,000 -815 Descending Boston Center
Tue 11:20:48 PM 42.8069 -73.8069 116° Southeast 159 183 1,400 -600 Descending Boston Center

Login

Don't have an account? Register now (free) for customized features, flight alerts, and more!